Time;durP1;ratioP1;P1;durP2;ratioP2;P2;SDS_P1;SDS_P2;PMS_P1;PMS_P2;Temp;Humidity;BMP_temperature;BMP_pressure;BME280_temperature;BME280_humidity;BME280_pressure;Samples;Min_cycle;Max_cycle;Signal;HPM_P1;HPM_P2
2022/09/10 00:01:15;;;;;;;20.05;15.20;;;;;;;14.30;100.00;68356.72;5030552;28;20049;-81
2022/09/10 00:03:42;;;;;;;19.10;14.63;;;;;;;14.28;100.00;68349.09;5029354;28;20124;-80
2022/09/10 00:06:08;;;;;;;19.00;14.05;;;;;;;14.28;100.00;68354.44;5032389;28;20044;-80
2022/09/10 00:08:34;;;;;;;20.15;14.75;;;;;;;;;;5030751;28;20061;-82
2022/09/10 00:11:05;;;;;;;19.95;14.63;;;;;;;14.22;100.00;68348.75;5029964;28;20049;-81
2022/09/10 00:13:31;;;;;;;20.05;14.25;;;;;;;14.19;100.00;68345.34;5030354;28;20164;-82
2022/09/10 00:15:57;;;;;;;22.83;14.00;;;;;;;14.08;100.00;68332.25;5034937;28;20056;-82
2022/09/10 00:18:23;;;;;;;24.92;15.55;;;;;;;14.08;100.00;68332.81;5032555;28;20280;-81
2022/09/10 00:20:54;;;;;;;17.95;14.00;;;;;;;14.10;100.00;68332.44;5026011;28;20050;-81
2022/09/10 00:23:22;;;;;;;18.38;14.40;;;;;;;14.10;100.00;68329.75;5035853;28;20071;-79
2022/09/10 00:25:50;;;;;;;18.45;14.93;;;;;;;14.12;100.00;68336.81;5028402;28;20512;-81
2022/09/10 00:28:16;;;;;;;19.60;15.30;;;;;;;14.09;100.00;68333.94;5031906;28;20405;-79
2022/09/10 00:30:44;;;;;;;22.60;14.60;;;;;;;14.08;100.00;68332.25;5031974;28;20049;-80
2022/09/10 00:33:10;;;;;;;21.17;15.25;;;;;;;14.04;100.00;68328.28;5031862;28;20045;-81
2022/09/10 00:35:35;;;;;;;20.02;15.43;;;;;;;;;;5033394;28;20237;-81
2022/09/10 00:38:01;;;;;;;19.63;14.18;;;;;;;;;;5035331;28;20037;-81
2022/09/10 00:40:27;;;;;;;18.80;14.13;;;;;;;;;;5031105;28;20048;-81
2022/09/10 00:42:52;;;;;;;22.92;16.33;;;;;;;14.13;100.00;68335.84;5030815;28;20061;-82
2022/09/10 00:45:36;;;;;;;25.45;17.98;;;;;;;14.17;100.00;68343.06;5034118;28;20067;-80
2022/09/10 00:48:10;;;;;;;23.58;15.57;;;;;;;14.17;100.00;68340.38;5034920;28;20280;-82
2022/09/10 00:50:40;;;;;;;26.88;18.05;;;;;;;14.22;100.00;68348.75;5025661;28;20038;-82
2022/09/10 00:53:11;;;;;;;22.17;17.85;;;;;;;;;;5030162;28;20038;-82
2022/09/10 00:55:39;;;;;;;23.50;18.58;;;;;;;14.28;100.00;68355.03;5029121;28;20132;-80
2022/09/10 00:58:07;;;;;;;19.23;15.00;;;;;;;14.33;100.00;68357.47;5036509;28;20049;-80
2022/09/10 01:00:33;;;;;;;26.90;18.00;;;;;;;14.38;100.00;68365.81;5035740;28;20044;-81
2022/09/10 01:02:58;;;;;;;21.00;15.85;;;;;;;;;;5036886;28;20546;-81
2022/09/10 01:05:25;;;;;;;24.08;16.85;;;;;;;14.42;100.00;68370.38;5037812;28;20037;-82
2022/09/10 01:07:51;;;;;;;23.23;16.05;;;;;;;14.42;100.00;68370.94;5034694;28;20049;-81
2022/09/10 01:10:20;;;;;;;24.38;15.20;;;;;;;;;;5039296;28;20037;-81
2022/09/10 01:12:49;;;;;;;20.80;14.82;;;;;;;14.48;100.00;68382.56;5029670;28;20037;-82
2022/09/10 01:15:32;;;;;;;26.73;17.33;;;;;;;;;;5037954;28;20041;-81
2022/09/10 01:18:19;;;;;;;24.83;16.77;;;;;;;14.53;100.00;68382.34;5031082;28;20026;-82
2022/09/10 01:20:56;;;;;;;21.83;17.17;;;;;;;14.54;100.00;68384.06;5029065;28;20092;-82
2022/09/10 01:23:40;;;;;;;23.27;16.00;;;;;;;;;;5034162;28;20060;-82
2022/09/10 01:26:20;;;;;;;23.83;16.98;;;;;;;;;;5038723;28;20064;-81
2022/09/10 01:28:52;;;;;;;24.27;16.42;;;;;;;14.59;100.00;68386.50;5017938;28;20046;-81
2022/09/10 01:31:24;;;;;;;21.42;16.77;;;;;;;;;;5039503;28;20108;-81
2022/09/10 01:34:18;;;;;;;25.23;18.83;;;;;;;14.64;100.00;68394.88;5032125;28;20517;-81
2022/09/10 01:36:44;;;;;;;23.20;17.13;;;;;;;;;;5038129;28;20100;-81
2022/09/10 01:39:09;;;;;;;26.88;18.42;;;;;;;;;;5040553;28;20112;-81
2022/09/10 01:41:35;;;;;;;26.33;18.90;;;;;;;;;;5042560;28;20069;-81
2022/09/10 01:44:47;;;;;;;22.17;17.30;;;;;;;14.70;100.00;68399.03;5041906;28;20060;-81
2022/09/10 01:47:25;;;;;;;25.95;17.35;;;;;;;14.69;100.00;68405.94;5026285;28;20034;-81
2022/09/10 01:49:59;;;;;;;23.30;17.83;;;;;;;14.70;100.00;68401.69;5038572;28;20052;-81
2022/09/10 01:52:36;;;;;;;24.80;18.40;;;;;;;14.71;100.00;68402.28;5041951;28;20041;-81
2022/09/10 01:55:40;;;;;;;25.35;19.10;;;;;;;14.69;100.00;68400.56;5033854;28;20041;-83
2022/09/10 01:58:17;;;;;;;23.70;17.80;;;;;;;;;;5008118;28;20104;-83
2022/09/10 02:00:52;;;;;;;27.85;16.10;;;;;;;14.69;100.00;68405.34;5022921;28;20073;-83
2022/09/10 02:03:23;;;;;;;23.10;18.52;;;;;;;14.72;100.00;68403.41;5024845;28;20038;-83
2022/09/10 02:05:49;;;;;;;26.38;19.55;;;;;;;;;;5026652;28;20536;-83
2022/09/10 02:08:17;;;;;;;23.75;18.55;;;;;;;;;;5024129;28;20073;-83
2022/09/10 02:11:05;;;;;;;29.55;17.13;;;;;;;;;;5027880;28;20057;-84
2022/09/10 02:13:31;;;;;;;26.75;15.90;;;;;;;;;;5028379;28;20461;-83
2022/09/10 02:15:58;;;;;;;26.40;17.30;;;;;;;;;;5028498;28;20041;-83
2022/09/10 02:18:25;;;;;;;28.20;18.23;;;;;;;14.73;100.00;68404.53;5028873;28;20083;-83
2022/09/10 02:20:56;;;;;;;29.75;18.17;;;;;;;14.72;100.00;68403.97;5029065;28;20045;-82
2022/09/10 02:23:30;;;;;;;28.98;19.88;;;;;;;14.72;100.00;68403.41;5023437;28;20551;-82
2022/09/10 02:25:56;;;;;;;26.50;19.02;;;;;;;14.70;100.00;68401.69;5026105;28;20467;-83
2022/09/10 02:28:21;;;;;;;32.83;19.13;;;;;;;14.72;100.00;68408.78;5027946;28;20507;-83
2022/09/10 02:30:47;;;;;;;27.33;18.70;;;;;;;;;;5033243;28;20041;-83
2022/09/10 02:33:15;;;;;;;27.55;17.83;;;;;;;14.73;100.00;68404.53;5026223;28;20126;-82
2022/09/10 02:35:41;;;;;;;29.63;17.33;;;;;;;14.70;100.00;68395.78;5030267;28;20053;-83
2022/09/10 02:38:07;;;;;;;25.63;18.75;;;;;;;;;;5025223;28;20112;-83
2022/09/10 02:40:32;;;;;;;27.45;17.38;;;;;;;;;;5028611;28;20337;-83
2022/09/10 02:42:58;;;;;;;27.63;17.52;;;;;;;14.70;100.00;68399.03;5026817;28;20052;-83
2022/09/10 02:45:23;;;;;;;28.17;15.63;;;;;;;14.69;100.00;68400.00;5028697;28;20080;-83
2022/09/10 02:47:49;;;;;;;28.85;17.83;;;;;;;14.71;100.00;68402.84;5034181;28;20499;-83
2022/09/10 02:50:15;;;;;;;26.98;18.23;;;;;;;14.71;100.00;68402.28;5034085;28;20080;-83
2022/09/10 02:52:40;;;;;;;29.77;17.30;;;;;;;14.73;100.00;68404.53;5028275;28;20084;-83
2022/09/10 02:55:07;;;;;;;25.85;16.50;;;;;;;14.75;100.00;68406.81;5035236;28;20045;-82
2022/09/10 02:57:33;;;;;;;30.83;18.70;;;;;;;14.74;100.00;68403.59;5030742;28;20521;-83
2022/09/10 02:59:58;;;;;;;30.80;17.02;;;;;;;14.74;100.00;68406.25;5033949;28;20515;-84
2022/09/10 03:02:24;;;;;;;29.45;16.65;;;;;;;14.71;100.00;68402.28;5028751;28;20045;-83
2022/09/10 03:04:50;;;;;;;25.23;16.67;;;;;;;14.72;100.00;68408.78;5033966;28;20045;-83
2022/09/10 03:07:19;;;;;;;25.30;17.38;;;;;;;;;;5028057;28;20689;-83
2022/09/10 03:09:44;;;;;;;26.80;17.13;;;;;;;;;;5026416;28;20065;-83
2022/09/10 03:12:10;;;;;;;29.05;17.25;;;;;;;14.69;100.00;68400.00;5030197;28;20166;-83
2022/09/10 03:14:35;;;;;;;27.88;15.73;;;;;;;14.67;100.00;68398.28;5023096;28;20041;-83
2022/09/10 03:17:01;;;;;;;27.58;16.55;;;;;;;14.66;100.00;68403.06;5030687;28;20099;-83
2022/09/10 03:19:27;;;;;;;25.65;16.02;;;;;;;14.71;100.00;68402.84;5026821;28;20475;-83
2022/09/10 03:21:52;;;;;;;28.00;15.45;;;;;;;14.70;100.00;68401.13;5015711;28;20125;-83
2022/09/10 03:24:18;;;;;;;22.75;14.90;;;;;;;;;;5026750;28;20108;-83
2022/09/10 03:26:44;;;;;;;25.52;16.55;;;;;;;14.70;100.00;68399.03;5032109;28;20136;-82
2022/09/10 03:29:10;;;;;;;25.05;15.68;;;;;;;14.70;100.00;68401.13;5030998;28;20052;-83
2022/09/10 03:31:35;;;;;;;25.20;14.27;;;;;;;;;;5030807;28;20099;-82
2022/09/10 03:34:00;;;;;;;26.15;14.55;;;;;;;;;;5029658;28;20041;-83
2022/09/10 03:36:30;;;;;;;24.95;15.55;;;;;;;;;;5020048;28;20044;-83
2022/09/10 03:38:57;;;;;;;27.13;15.93;;;;;;;14.68;100.00;68398.88;5026731;28;20067;-83
2022/09/10 03:41:22;;;;;;;20.75;15.02;;;;;;;14.64;100.00;68392.78;5030354;28;20052;-82
2022/09/10 03:43:48;;;;;;;23.83;14.90;;;;;;;14.66;100.00;68397.72;5028517;28;20444;-82
2022/09/10 03:46:14;;;;;;;23.42;14.70;;;;;;;14.62;100.00;68390.50;5028009;28;20038;-83
2022/09/10 03:48:42;;;;;;;25.92;16.50;;;;;;;14.65;100.00;68396.03;5024231;28;20136;-83
2022/09/10 03:51:09;;;;;;;25.00;16.27;;;;;;;14.68;100.00;68404.22;5015326;28;20072;-83
2022/09/10 03:53:35;;;;;;;24.13;16.58;;;;;;;14.68;100.00;68398.88;5010680;28;20069;-83
2022/09/10 03:56:02;;;;;;;27.27;17.55;;;;;;;14.72;100.00;68408.78;5021887;28;20132;-82
2022/09/10 03:58:27;;;;;;;27.27;18.15;;;;;;;14.68;100.00;68396.75;5027813;28;20095;-83
2022/09/10 04:00:52;;;;;;;24.98;16.70;;;;;;;14.67;100.00;68395.59;5020966;28;20045;-82
2022/09/10 04:03:19;;;;;;;26.58;17.55;;;;;;;14.66;100.00;68397.72;5030157;28;20041;-82
2022/09/10 04:05:45;;;;;;;30.60;18.48;;;;;;;14.64;100.00;68392.78;5029591;28;20131;-83
2022/09/10 04:08:11;;;;;;;30.67;19.08;;;;;;;14.61;100.00;68392.03;5020286;28;20037;-83
2022/09/10 04:10:38;;;;;;;28.92;19.08;;;;;;;14.63;100.00;68391.63;5028596;28;20320;-83
2022/09/10 04:13:04;;;;;;;28.80;18.80;;;;;;;14.64;100.00;68400.81;5026573;28;20069;-83
2022/09/10 04:15:29;;;;;;;29.52;18.90;;;;;;;;;;5023264;28;20136;-83
2022/09/10 04:17:55;;;;;;;31.97;20.07;;;;;;;14.63;100.00;68393.75;5030872;28;20052;-83
2022/09/10 04:20:22;;;;;;;33.75;20.25;;;;;;;14.62;100.00;68392.59;5030905;28;20307;-83
2022/09/10 04:22:48;;;;;;;31.90;20.13;;;;;;;14.68;100.00;68398.88;5030528;28;20033;-83
2022/09/10 04:25:14;;;;;;;28.77;19.55;;;;;;;14.67;100.00;68398.28;5027014;28;20224;-83
2022/09/10 04:27:41;;;;;;;29.73;19.60;;;;;;;14.68;100.00;68398.88;5027279;28;20033;-83
2022/09/10 04:30:07;;;;;;;29.85;19.38;;;;;;;14.68;100.00;68399.44;5026239;28;20125;-83
2022/09/10 04:32:33;;;;;;;31.70;19.27;;;;;;;14.68;100.00;68398.88;5029889;28;20065;-83
2022/09/10 04:35:01;;;;;;;33.95;21.55;;;;;;;14.68;100.00;68399.44;5030709;28;20559;-83
2022/09/10 04:37:27;;;;;;;31.23;18.77;;;;;;;14.65;100.00;68401.38;5014833;28;20041;-83
2022/09/10 04:39:53;;;;;;;32.65;20.10;;;;;;;14.65;100.00;68396.59;5017718;28;20136;-83
2022/09/10 04:42:19;;;;;;;29.52;20.00;;;;;;;14.68;100.00;68399.44;5012688;28;20057;-83
2022/09/10 04:44:44;;;;;;;33.88;21.08;;;;;;;;;;5019936;28;20046;-83
2022/09/10 04:47:09;;;;;;;32.47;20.83;;;;;;;14.69;100.00;68395.22;5032235;28;20076;-83
2022/09/10 04:49:35;;;;;;;28.73;19.63;;;;;;;14.72;100.00;68403.41;5028015;28;20045;-83
2022/09/10 04:52:01;;;;;;;30.95;19.15;;;;;;;14.69;100.00;68400.56;5031494;28;20120;-84
2022/09/10 04:54:26;;;;;;;31.42;18.08;;;;;;;14.68;100.00;68394.06;5030191;28;20076;-83
2022/09/10 04:56:51;;;;;;;29.73;19.48;;;;;;;14.70;100.00;68401.13;5024568;28;20061;-83
2022/09/10 04:59:17;;;;;;;31.27;21.52;;;;;;;14.71;100.00;68396.94;5030421;28;20072;-83
2022/09/10 05:01:42;;;;;;;33.30;20.05;;;;;;;14.71;100.00;68402.28;5028529;28;20041;-83
2022/09/10 05:04:07;;;;;;;29.88;20.48;;;;;;;;;;5026261;28;20029;-82
2022/09/10 05:06:33;;;;;;;31.40;19.98;;;;;;;14.71;100.00;68402.28;5039759;28;20041;-82
2022/09/10 05:08:58;;;;;;;31.27;19.77;;;;;;;14.70;100.00;68401.13;5038374;28;20532;-83
2022/09/10 05:11:24;;;;;;;29.27;21.10;;;;;;;;;;5031011;28;20103;-84
2022/09/10 05:13:49;;;;;;;29.90;19.75;;;;;;;;;;5029022;28;20061;-83
2022/09/10 05:16:15;;;;;;;31.38;19.83;;;;;;;14.67;100.00;68395.59;5033008;28;20048;-82
2022/09/10 05:18:40;;;;;;;32.03;21.60;;;;;;;14.69;100.00;68400.56;5033345;28;20057;-83
2022/09/10 05:21:06;;;;;;;29.05;22.05;;;;;;;14.69;100.00;68400.00;5034051;28;20105;-82
2022/09/10 05:23:31;;;;;;;32.97;21.50;;;;;;;14.65;100.00;68396.59;5036449;28;20048;-82
2022/09/10 05:25:58;;;;;;;32.80;23.02;;;;;;;14.64;100.00;68400.81;5035488;28;20025;-82
2022/09/10 05:28:23;;;;;;;34.30;23.42;;;;;;;14.69;100.00;68400.00;5031791;28;20061;-82
2022/09/10 05:30:49;;;;;;;34.67;23.95;;;;;;;14.68;100.00;68398.88;5030248;28;20040;-83
2022/09/10 05:33:15;;;;;;;31.35;20.88;;;;;;;14.66;100.00;68392.34;5024539;28;20056;-82
2022/09/10 05:35:40;;;;;;;32.35;22.15;;;;;;;14.66;100.00;68397.72;5023578;28;20389;-83
2022/09/10 05:38:07;;;;;;;32.63;21.77;;;;;;;14.67;100.00;68392.94;5019723;28;20049;-82
2022/09/10 05:40:33;;;;;;;34.55;22.27;;;;;;;14.69;100.00;68394.66;5027702;28;20136;-82
2022/09/10 05:42:59;;;;;;;32.08;23.20;;;;;;;14.69;100.00;68397.31;5014257;28;20046;-83
2022/09/10 05:45:24;;;;;;;35.65;23.92;;;;;;;14.69;100.00;68397.31;5019684;28;20095;-83
2022/09/10 05:47:51;;;;;;;37.75;25.08;;;;;;;;;;5020728;28;20549;-82
2022/09/10 05:50:17;;;;;;;36.13;24.40;;;;;;;14.70;100.00;68407.06;5023619;28;20692;-83
2022/09/10 05:52:43;;;;;;;38.17;23.75;;;;;;;14.73;100.00;68404.53;5027568;28;20063;-83
2022/09/10 05:55:10;;;;;;;38.85;23.00;;;;;;;14.77;100.00;68409.13;5026776;28;20749;-82
2022/09/10 05:57:36;;;;;;;33.10;22.27;;;;;;;14.75;100.00;68406.81;5027767;28;20121;-82
2022/09/10 06:00:05;;;;;;;37.38;23.27;;;;;;;14.77;100.00;68409.13;5019384;28;20116;-84
2022/09/10 06:02:30;;;;;;;;;;;;;;;14.77;100.00;68407.00;5022303;28;20036;-83
2022/09/10 06:04:55;;;;;;;34.03;21.98;;;;;;;14.75;100.00;68406.81;5027525;28;19999;-83
2022/09/10 06:07:21;;;;;;;35.47;24.50;;;;;;;14.76;100.00;68407.97;5023056;28;20046;-83
2022/09/10 06:09:46;;;;;;;36.83;23.15;;;;;;;;;;5025257;28;20097;-83
2022/09/10 06:12:12;;;;;;;35.17;23.30;;;;;;;14.80;100.00;68412.53;5025585;28;20417;-83
2022/09/10 06:14:37;;;;;;;37.88;23.42;;;;;;;14.82;100.00;68414.81;5028918;28;20798;-83
2022/09/10 06:17:03;;;;;;;31.77;21.70;;;;;;;;;;5028898;28;20034;-83
2022/09/10 06:19:29;;;;;;;36.00;22.90;;;;;;;14.87;100.00;68421.06;5028908;28;20183;-83
2022/09/10 06:21:54;;;;;;;36.15;22.50;;;;;;;;;;5029657;28;20708;-83
2022/09/10 06:24:19;;;;;;;35.67;23.67;;;;;;;14.87;100.00;68417.81;5021651;28;20183;-83
2022/09/10 06:26:48;;;;;;;33.72;22.23;;;;;;;14.86;100.00;68417.25;5025496;28;20335;-82
2022/09/10 06:29:14;;;;;;;34.22;24.00;;;;;;;14.91;100.00;68429.84;5022946;28;20041;-82
2022/09/10 06:31:39;;;;;;;33.53;23.95;;;;;;;;;;5027236;28;20056;-84
2022/09/10 06:34:05;;;;;;;35.75;24.17;;;;;;;14.91;100.00;68425.06;5027394;28;20065;-83
2022/09/10 06:36:31;;;;;;;36.08;24.13;;;;;;;;;;5019527;28;20042;-83
2022/09/10 06:38:57;;;;;;;35.53;23.45;;;;;;;14.92;100.00;68426.19;5026549;28;20148;-83
2022/09/10 06:41:23;;;;;;;31.27;22.38;;;;;;;;;;5026667;28;20061;-83
2022/09/10 06:43:49;;;;;;;32.30;23.80;;;;;;;;;;5021273;28;20080;-83
2022/09/10 06:46:18;;;;;;;34.75;24.95;;;;;;;14.95;100.00;68426.91;5019710;28;20459;-83
2022/09/10 06:48:44;;;;;;;33.38;23.50;;;;;;;14.99;100.00;68433.59;5028408;28;20412;-83
2022/09/10 06:51:11;;;;;;;33.35;23.35;;;;;;;;;;5029286;28;20044;-82
2022/09/10 06:53:37;;;;;;;33.38;23.17;;;;;;;15.02;100.00;68434.91;5029564;28;20038;-83
2022/09/10 06:56:10;;;;;;;32.85;24.30;;;;;;;15.04;100.00;68439.84;5029034;28;20034;-83
2022/09/10 06:58:35;;;;;;;31.90;22.33;;;;;;;15.05;100.00;68441.00;5022802;28;20086;-84
2022/09/10 07:01:14;;;;;;;37.92;24.33;;;;;;;15.08;100.00;68441.72;5034357;28;20049;-83
2022/09/10 07:03:41;;;;;;;30.95;22.70;;;;;;;15.08;100.00;68441.72;5032434;28;20575;-84
2022/09/10 07:06:09;;;;;;;28.95;21.60;;;;;;;15.10;100.00;68446.69;5033445;28;20041;-85
2022/09/10 07:08:35;;;;;;;29.98;19.98;;;;;;;15.10;100.00;68452.06;5031752;28;20501;-83
2022/09/10 07:11:03;;;;;;;30.40;23.52;;;;;;;15.15;100.00;68448.56;5030938;28;20056;-84
2022/09/10 07:13:30;;;;;;;31.20;22.92;;;;;;;15.18;100.00;68451.97;5032393;28;20037;-84
2022/09/10 07:15:56;;;;;;;30.30;22.67;;;;;;;15.22;100.00;68459.22;5033031;28;20497;-83
2022/09/10 07:18:23;;;;;;;27.85;19.52;;;;;;;15.20;100.00;68457.50;5034719;28;20041;-84
2022/09/10 07:20:49;;;;;;;31.63;22.50;;;;;;;15.30;100.00;68466.19;5035381;28;20341;-84
2022/09/10 07:23:20;;;;;;;28.25;20.42;;;;;;;15.28;100.00;68466.06;5038338;28;20060;-83
2022/09/10 07:25:46;;;;;;;25.50;19.45;;;;;;;15.29;100.00;68465.06;5031857;28;20060;-83
2022/09/10 07:28:14;;;;;;;28.10;21.65;;;;;;;15.36;100.00;68475.16;5029801;28;20042;-83
2022/09/10 07:30:40;;;;;;;29.85;20.58;;;;;;;15.37;100.00;68475.75;5032533;28;20033;-82
2022/09/10 07:33:06;;;;;;;29.90;21.85;;;;;;;15.44;100.00;68483.69;5032538;28;20513;-82
2022/09/10 07:35:38;;;;;;;24.60;19.80;;;;;;;15.43;100.00;68483.13;5026541;28;20044;-82
2022/09/10 07:38:05;;;;;;;26.38;19.38;;;;;;;15.47;100.00;68487.13;5030184;28;20164;-82
2022/09/10 07:40:32;;;;;;;25.45;19.70;;;;;;;15.53;100.00;68491.84;5030477;28;20034;-82
2022/09/10 07:42:58;;;;;;;26.52;21.55;;;;;;;;;;5032875;28;20038;-82
2022/09/10 07:45:24;;;;;;;26.25;19.95;;;;;;;15.56;100.00;68494.69;5032863;28;20045;-82
2022/09/10 07:47:50;;;;;;;27.92;20.48;;;;;;;15.61;100.00;68502.50;5031765;28;20029;-83
2022/09/10 07:50:15;;;;;;;26.63;18.98;;;;;;;15.63;100.00;68505.34;5031203;28;20084;-82
2022/09/10 07:52:41;;;;;;;25.30;21.90;;;;;;;;;;5034662;28;20091;-83
2022/09/10 07:55:06;;;;;;;24.50;19.98;;;;;;;;;;5036112;28;20052;-83
2022/09/10 07:57:36;;;;;;;25.30;19.17;;;;;;;15.64;100.00;68505.91;5034970;28;20309;-83
2022/09/10 08:00:03;;;;;;;24.42;17.58;;;;;;;;;;5034600;28;20041;-83
2022/09/10 08:02:29;;;;;;;29.27;20.75;;;;;;;15.76;100.00;68516.94;5036489;28;20037;-83
2022/09/10 08:04:54;;;;;;;29.67;21.05;;;;;;;;;;5029979;28;20607;-83
2022/09/10 08:07:19;;;;;;;26.92;20.48;;;;;;;15.78;100.00;68519.22;5027037;28;20071;-83
2022/09/10 08:09:44;;;;;;;26.10;20.65;;;;;;;15.79;100.00;68523.03;5026154;28;20068;-84
2022/09/10 08:12:10;;;;;;;26.05;20.50;;;;;;;15.78;100.00;68519.78;5029808;28;20096;-83
2022/09/10 08:14:36;;;;;;;28.73;23.38;;;;;;;15.90;100.00;68532.31;5026893;28;20045;-84
2022/09/10 08:17:03;;;;;;;28.00;20.10;;;;;;;15.86;100.00;68527.75;5030155;28;20099;-83
2022/09/10 08:19:28;;;;;;;26.42;21.35;;;;;;;15.91;100.00;68536.72;5023978;28;20045;-84
2022/09/10 08:21:55;;;;;;;29.55;22.23;;;;;;;15.91;100.00;68536.72;5026655;28;20052;-83
2022/09/10 08:24:21;;;;;;;26.17;21.30;;;;;;;15.96;100.00;68541.84;5026711;28;20080;-83
2022/09/10 08:26:46;;;;;;;26.05;20.55;;;;;;;16.00;100.00;68546.41;5030073;28;20072;-84
2022/09/10 08:29:12;;;;;;;23.88;20.00;;;;;;;15.98;100.00;68541.44;5034128;28;20037;-83
2022/09/10 08:31:38;;;;;;;21.52;16.77;;;;;;;15.99;100.00;68542.56;5033706;28;20035;-84
2022/09/10 08:34:04;;;;;;;25.90;21.10;;;;;;;16.09;100.00;68556.09;5031753;28;20121;-83
2022/09/10 08:36:30;;;;;;;22.25;18.63;;;;;;;16.10;100.00;68563.16;5030974;28;20042;-83
2022/09/10 08:38:55;;;;;;;22.10;17.65;;;;;;;16.09;100.00;68556.09;5034728;28;20045;-83
2022/09/10 08:41:37;;;;;;;19.00;16.17;;;;;;;16.11;100.00;68555.66;5031161;28;20048;-83
2022/09/10 08:44:10;;;;;;;19.88;16.52;;;;;;;16.15;100.00;68562.94;5028957;28;20401;-83
2022/09/10 08:46:43;;;;;;;18.63;14.63;;;;;;;16.12;100.00;68559.50;5028623;28;20120;-82
2022/09/10 08:49:19;;;;;;;17.10;15.20;;;;;;;16.10;100.00;68555.09;5035441;28;20116;-83
2022/09/10 08:51:59;;;;;;;17.77;14.90;;;;;;;16.14;100.00;68559.09;5036788;28;20072;-83
2022/09/10 08:54:26;;;;;;;17.70;13.68;;;;;;;;;;5038293;28;20033;-83
2022/09/10 08:56:54;;;;;;;19.92;14.75;;;;;;;;;;5037337;28;20063;-83
2022/09/10 08:59:28;;;;;;;14.88;12.38;;;;;;;16.29;100.00;68584.25;5039482;28;20105;-83
2022/09/10 09:02:00;;;;;;;14.68;12.05;;;;;;;16.26;100.00;68572.78;5032891;28;20041;-84
2022/09/10 09:04:39;;;;;;;17.08;13.85;;;;;;;16.36;100.00;68583.59;5035186;28;20029;-83
2022/09/10 09:07:13;;;;;;;18.50;13.35;;;;;;;16.51;100.00;68602.81;5034875;28;20076;-83
2022/09/10 09:09:39;;;;;;;18.58;12.35;;;;;;;16.55;100.00;68607.38;5042197;28;20412;-83
2022/09/10 09:12:04;;;;;;;14.80;12.80;;;;;;;16.59;100.00;68612.50;5048863;28;20064;-83
2022/09/10 09:14:44;;;;;;;13.20;11.20;;;;;;;16.59;100.00;68611.94;5042045;28;20071;-83
2022/09/10 09:17:31;;;;;;;12.65;10.60;;;;;;;16.56;100.00;68609.09;5040988;28;20049;-83
2022/09/10 09:20:17;;;;;;;11.80;10.05;;;;;;;16.55;100.00;68607.38;5006869;28;20056;-83
2022/09/10 09:22:42;;;;;;;15.25;11.68;;;;;;;;;;5036466;28;20412;-84
2022/09/10 09:25:20;;;;;;;13.35;10.85;;;;;;;16.61;100.00;68614.78;5045001;28;20041;-84
2022/09/10 09:27:49;;;;;;;14.05;10.93;;;;;;;16.69;100.00;68620.66;5033507;28;20037;-83
2022/09/10 09:30:22;;;;;;;13.77;9.80;;;;;;;16.65;100.00;68616.66;5041136;28;20056;-84
2022/09/10 09:32:49;;;;;;;13.63;10.63;;;;;;;16.69;100.00;68623.34;5031113;28;20034;-84
2022/09/10 09:35:35;;;;;;;10.75;9.05;;;;;;;16.73;100.00;68627.91;5030082;28;20077;-83
2022/09/10 09:38:29;;;;;;;12.52;9.88;;;;;;;16.78;100.00;68639.00;5026924;28;20049;-83
2022/09/10 09:40:56;;;;;;;11.15;9.35;;;;;;;;;;5015642;28;20350;-83
2022/09/10 09:43:25;;;;;;;10.23;8.57;;;;;;;16.86;100.00;68648.13;5030315;28;20048;-84
2022/09/10 09:45:52;;;;;;;12.77;9.75;;;;;;;16.96;100.00;68653.59;5024806;28;20048;-83
2022/09/10 09:48:19;;;;;;;13.05;9.48;;;;;;;17.09;100.00;68663.03;5026733;28;20041;-83
2022/09/10 09:50:52;;;;;;;10.65;8.05;;;;;;;17.19;100.00;68679.25;5023479;28;20103;-83
2022/09/10 09:53:26;;;;;;;10.93;8.57;;;;;;;17.50;100.00;68714.06;5045425;28;20753;-83
2022/09/10 09:55:53;;;;;;;11.10;7.65;;;;;;;;;;5021726;28;20105;-83
2022/09/10 09:58:23;;;;;;;10.20;7.20;;;;;;;17.51;100.00;68714.63;5026626;28;20045;-84
2022/09/10 10:00:53;;;;;;;9.80;7.82;;;;;;;17.39;100.00;68700.94;5027010;28;20045;-84
2022/09/10 10:03:25;;;;;;;11.60;7.57;;;;;;;17.46;100.00;68706.78;5028735;28;20076;-84
2022/09/10 10:06:02;;;;;;;10.60;8.45;;;;;;;17.48;100.00;68711.75;5027521;28;20515;-84
2022/09/10 10:08:32;;;;;;;11.10;9.13;;;;;;;17.47;100.00;68707.38;5030978;28;20041;-84
2022/09/10 10:10:58;;;;;;;11.38;9.88;;;;;;;17.32;100.00;68691.41;5029641;28;20053;-84
2022/09/10 10:13:23;;;;;;;12.40;11.20;;;;;;;17.28;100.00;68684.13;5028717;28;20033;-84
2022/09/10 10:15:49;;;;;;;12.95;11.52;;;;;;;;;;5029422;28;20045;-83
2022/09/10 10:18:20;;;;;;;13.95;12.43;;;;;;;17.24;100.00;68676.88;5029529;28;20049;-84
2022/09/10 10:21:07;;;;;;;14.98;12.10;;;;;;;17.18;100.00;68678.13;5033341;28;20404;-84
2022/09/10 10:23:37;;;;;;;14.43;12.45;;;;;;;17.11;100.00;68670.69;5030062;28;20152;-84
2022/09/10 10:26:20;;;;;;;15.40;13.07;;;;;;;17.22;100.00;68677.28;5023579;28;20461;-85
2022/09/10 10:28:47;;;;;;;14.57;12.95;;;;;;;17.28;100.00;68683.56;5028768;28;20474;-84
2022/09/10 10:31:13;;;;;;;14.82;13.05;;;;;;;;;;5015207;28;20100;-83
2022/09/10 10:34:05;;;;;;;15.07;13.48;;;;;;;17.19;100.00;68678.69;5015711;28;20049;-84
2022/09/10 10:37:08;;;;;;;16.55;13.75;;;;;;;17.19;100.00;68676.00;5003741;28;20037;-84
2022/09/10 10:39:39;;;;;;;16.38;14.02;;;;;;;17.17;100.00;68671.59;5024798;28;20049;-82
2022/09/10 10:42:15;;;;;;;16.25;13.52;;;;;;;17.19;100.00;68673.88;5033222;28;20148;-81
2022/09/10 10:44:43;;;;;;;17.90;15.88;;;;;;;;;;5031726;28;20041;-82
2022/09/10 10:47:14;;;;;;;16.95;15.32;;;;;;;;;;5028009;28;20196;-81
2022/09/10 10:49:52;;;;;;;17.90;16.10;;;;;;;17.13;100.00;68672.97;5032874;28;20057;-82
2022/09/10 10:52:23;;;;;;;17.33;15.52;;;;;;;17.21;100.00;68675.59;5035963;28;20064;-82
2022/09/10 10:55:10;;;;;;;16.95;15.32;;;;;;;17.27;100.00;68683.00;5034575;28;20103;-81
2022/09/10 10:57:56;;;;;;;17.33;15.63;;;;;;;17.23;100.00;68680.53;5034900;28;20037;-82
2022/09/10 11:00:23;;;;;;;17.50;15.80;;;;;;;17.33;100.00;68695.22;5035070;28;20049;-82
2022/09/10 11:03:00;;;;;;;19.17;17.27;;;;;;;17.34;100.00;68696.34;5037142;28;20041;-81
2022/09/10 11:05:47;;;;;;;17.85;16.02;;;;;;;17.39;100.00;68698.81;5034962;28;20037;-82
2022/09/10 11:08:23;;;;;;;15.32;13.82;;;;;;;17.44;100.00;68704.50;5035163;28;20064;-82
2022/09/10 11:10:59;;;;;;;15.05;13.55;;;;;;;17.47;100.00;68710.06;5034046;28;20034;-82
2022/09/10 11:13:47;;;;;;;14.52;13.10;;;;;;;17.45;100.00;68705.09;5031467;28;20045;-81
2022/09/10 11:16:19;;;;;;;15.30;13.80;;;;;;;17.54;100.00;68715.91;5038093;28;20064;-83
2022/09/10 11:18:47;;;;;;;10.95;9.95;;;;;;;17.56;100.00;68717.63;5039351;28;20050;-83
2022/09/10 11:21:33;;;;;;;10.70;9.55;;;;;;;17.54;100.00;68718.03;5039913;28;20060;-83
2022/09/10 11:24:03;;;;;;;11.57;10.48;;;;;;;17.56;100.00;68714.94;5043981;28;20042;-82
2022/09/10 11:27:07;;;;;;;12.50;11.25;;;;;;;17.53;100.00;68714.22;5038281;28;20037;-82
2022/09/10 11:29:45;;;;;;;11.63;10.30;;;;;;;17.50;100.00;68711.34;4979284;28;20046;-81
2022/09/10 11:34:57;;;;;;;12.32;11.13;;;;;;;17.57;100.00;68718.75;5015193;28;20096;-81
2022/09/10 11:37:51;;;;;;;9.95;8.95;;;;;;;17.70;100.00;68733.59;5014526;28;20061;-81
2022/09/10 11:40:56;;;;;;;7.80;7.10;;;;;;;17.85;100.00;68749.59;5002406;28;20037;-81
2022/09/10 11:43:44;;;;;;;5.88;5.15;;;;;;;18.19;100.00;68791.09;4978019;28;20045;-78
2022/09/10 11:46:39;;;;;;;6.60;5.50;;;;;;;18.59;100.00;68835.63;4987875;28;20520;-80
2022/09/10 11:49:15;;;;;;;6.15;5.55;;;;;;;18.58;99.90;68829.09;4945969;28;20137;-77
2022/09/10 11:51:43;;;;;;;7.30;6.60;;;;;;;18.55;100.00;68830.50;4992322;28;20034;-80
2022/09/10 11:54:13;;;;;;;6.57;5.65;;;;;;;;;;4978847;28;20402;-80
2022/09/10 11:56:54;;;;;;;6.55;5.93;;;;;;;18.80;100.00;68853.66;4990572;28;20034;-79